Time;durP1;ratioP1;P1;durP2;ratioP2;P2;SDS_P1;SDS_P2;PMS_P1;PMS_P2;Temp;Humidity;BMP_temperature;BMP_pressure;BME280_temperature;BME280_humidity;BME280_pressure;Samples;Min_cycle;Max_cycle;Signal;HPM_P1;HPM_P2
2022/03/05 00:01:18;;;;;;;4.50;4.10;;;;;;;-1.53;65.54;99345.83;1715075;83;21019;-76
2022/03/05 00:03:45;;;;;;;4.47;4.08;;;;;;;-1.51;65.40;99349.72;1715258;83;21082;-76
2022/03/05 00:06:12;;;;;;;4.25;3.92;;;;;;;-1.52;65.59;99353.99;1715058;83;21078;-76
2022/03/05 00:08:38;;;;;;;4.65;4.25;;;;;;;-1.50;65.61;99354.91;1690845;84;21102;-75
2022/03/05 00:11:05;;;;;;;4.83;4.20;;;;;;;-1.50;65.71;99349.74;1690894;84;22569;-75
2022/03/05 00:13:35;;;;;;;5.53;4.17;;;;;;;-1.46;65.61;99348.45;1690759;84;21040;-76
2022/03/05 00:16:04;;;;;;;4.42;4.10;;;;;;;-1.50;65.54;99345.87;1715458;83;21542;-76
2022/03/05 00:18:31;;;;;;;5.25;4.22;;;;;;;-1.51;65.38;99349.29;1690424;84;21133;-75
2022/03/05 00:20:59;;;;;;;4.53;4.12;;;;;;;-1.51;65.83;99348.00;1715302;83;21118;-76
2022/03/05 00:23:26;;;;;;;5.40;4.25;;;;;;;-1.50;65.56;99348.45;1715100;83;21531;-76
2022/03/05 00:25:52;;;;;;;5.97;4.10;;;;;;;-1.53;65.72;99346.23;1703023;83;21044;-76
2022/03/05 00:28:20;;;;;;;5.90;4.60;;;;;;;-1.53;65.88;99344.54;1713295;82;21126;-76
2022/03/05 00:30:46;;;;;;;6.42;4.35;;;;;;;-1.51;66.00;99344.13;1694652;84;21097;-76
2022/03/05 00:33:13;;;;;;;6.30;4.22;;;;;;;-1.47;66.18;99348.04;1703615;83;21062;-76
2022/03/05 00:35:41;;;;;;;4.75;4.17;;;;;;;-1.45;66.04;99349.77;1708754;83;21928;-77
2022/03/05 00:38:08;;;;;;;4.37;4.00;;;;;;;-1.44;65.62;99351.52;1710685;83;21051;-76
2022/03/05 00:40:34;;;;;;;4.47;3.87;;;;;;;-1.44;65.32;99350.66;1711852;83;21082;-75
2022/03/05 00:43:01;;;;;;;5.78;3.85;;;;;;;-1.45;65.47;99348.91;1710845;83;21098;-75
2022/03/05 00:45:28;;;;;;;4.05;3.75;;;;;;;-1.44;65.45;99340.34;1711411;83;21070;-76
2022/03/05 00:47:55;;;;;;;4.30;3.90;;;;;;;-1.43;65.62;99348.50;1711249;83;21129;-76
2022/03/05 00:50:22;;;;;;;4.45;3.75;;;;;;;-1.44;65.34;99350.22;1710725;83;20999;-76
2022/03/05 00:52:49;;;;;;;3.72;3.37;;;;;;;-1.43;65.33;99346.80;1709282;83;21565;-75
2022/03/05 00:55:16;;;;;;;3.95;3.62;;;;;;;-1.41;65.17;99346.39;1709094;83;21100;-74
2022/03/05 00:57:43;;;;;;;4.05;3.47;;;;;;;-1.44;64.83;99348.08;1710679;83;21062;-76
2022/03/05 01:00:13;;;;;;;4.40;4.00;;;;;;;-1.44;64.76;99350.66;1711948;83;21381;-76
2022/03/05 01:02:40;;;;;;;3.83;3.52;;;;;;;-1.46;64.84;99348.06;1707803;83;21115;-76
2022/03/05 01:05:08;;;;;;;4.87;3.92;;;;;;;-1.46;64.64;99349.75;1708666;83;21085;-76
2022/03/05 01:07:34;;;;;;;4.20;3.42;;;;;;;-1.51;64.33;99351.02;1709074;83;22258;-76
2022/03/05 01:10:19;;;;;;;4.92;3.27;;;;;;;-1.52;64.70;99354.43;1707357;83;21431;-75
2022/03/05 01:13:04;;;;;;;;;;;;;;;-1.53;64.93;99349.70;1711412;83;21130;-76
2022/03/05 01:15:32;;;;;;;4.03;3.65;;;;;;;-1.47;65.05;99347.60;1709158;83;20212;-75
2022/03/05 01:18:00;;;;;;;3.45;3.20;;;;;;;-1.45;65.06;99343.75;1708732;83;22174;-76
2022/03/05 01:20:27;;;;;;;5.20;3.70;;;;;;;-1.42;65.07;99354.11;1708929;83;21102;-75
2022/03/05 01:22:54;;;;;;;3.75;3.45;;;;;;;-1.43;64.92;99353.66;1708969;83;21082;-75
2022/03/05 01:25:21;;;;;;;3.80;3.50;;;;;;;-1.46;64.56;99347.17;1709217;83;21152;-76
2022/03/05 01:27:48;;;;;;;3.72;3.37;;;;;;;-1.46;65.06;99346.77;1709204;83;21008;-74
2022/03/05 01:30:16;;;;;;;4.28;3.87;;;;;;;-1.43;65.01;99344.63;1703994;83;21082;-76
2022/03/05 01:32:43;;;;;;;3.67;3.37;;;;;;;-1.45;64.93;99352.78;1703108;84;21071;-76
2022/03/05 01:35:09;;;;;;;4.15;3.72;;;;;;;-1.46;65.42;99347.17;1706177;82;21914;-76
2022/03/05 01:37:36;;;;;;;3.90;3.60;;;;;;;-1.43;65.41;99352.37;1704970;82;21204;-76
2022/03/05 01:40:05;;;;;;;3.77;3.42;;;;;;;-1.43;65.51;99352.37;1706197;84;21083;-75
2022/03/05 01:42:32;;;;;;;3.80;3.50;;;;;;;-1.40;65.61;99354.98;1707357;83;21134;-76
2022/03/05 01:44:58;;;;;;;5.40;4.05;;;;;;;-1.39;65.55;99348.99;1706930;82;21110;-76
2022/03/05 01:47:25;;;;;;;4.37;3.37;;;;;;;-1.38;65.51;99346.83;1707253;84;22151;-76
2022/03/05 01:49:52;;;;;;;3.72;3.42;;;;;;;-1.39;65.51;99349.84;1707250;84;21239;-75
2022/03/05 01:52:19;;;;;;;4.12;3.72;;;;;;;-1.35;65.57;99351.59;1703716;84;21058;-75
2022/03/05 01:54:46;;;;;;;4.22;3.83;;;;;;;-1.36;65.38;99355.45;1707375;84;21161;-76
2022/03/05 01:57:13;;;;;;;5.58;3.80;;;;;;;-1.35;65.46;99350.73;1706894;84;21024;-76
2022/03/05 01:59:40;;;;;;;4.47;4.10;;;;;;;-1.35;65.50;99350.73;1707442;83;21078;-76
2022/03/05 02:02:07;;;;;;;5.28;4.33;;;;;;;-1.36;65.57;99351.58;1706965;83;21220;-76
2022/03/05 02:04:33;;;;;;;4.28;3.90;;;;;;;-1.39;65.68;99345.13;1656735;85;21153;-76
2022/03/05 02:07:01;;;;;;;4.37;3.98;;;;;;;-1.41;65.68;99353.24;1706746;84;21022;-76
2022/03/05 02:09:30;;;;;;;3.45;3.15;;;;;;;-1.41;65.61;99350.66;1706347;83;21060;-76
2022/03/05 02:11:57;;;;;;;5.08;3.67;;;;;;;-1.41;65.80;99351.95;1706967;84;21082;-75
2022/03/05 02:14:25;;;;;;;4.15;3.83;;;;;;;-1.40;65.70;99355.84;1707132;84;22138;-75
2022/03/05 02:16:53;;;;;;;4.05;3.67;;;;;;;-1.42;65.71;99348.52;1702902;83;21163;-76
2022/03/05 02:19:20;;;;;;;4.15;3.67;;;;;;;-1.43;65.79;99352.37;1686620;84;21078;-74
2022/03/05 02:21:47;;;;;;;3.90;3.42;;;;;;;-1.44;65.94;99351.95;1706871;84;21122;-76
2022/03/05 02:24:31;;;;;;;4.58;4.12;;;;;;;-1.42;66.02;99359.27;1701578;84;21142;-75
2022/03/05 02:26:45;;;;;;;4.00;3.60;;;;;;;-1.42;65.94;99359.27;1705336;84;21233;-76
2022/03/05 02:29:12;;;;;;;5.72;3.50;;;;;;;-1.43;66.03;99357.53;1702608;83;21285;-76
2022/03/05 02:31:40;;;;;;;3.87;3.58;;;;;;;-1.44;66.15;99358.40;1706664;84;20947;-75
2022/03/05 02:34:07;;;;;;;4.28;3.87;;;;;;;-1.42;66.29;99361.86;1706998;82;21110;-77
2022/03/05 02:36:34;;;;;;;3.52;3.22;;;;;;;-1.41;66.24;99366.15;1700907;84;21589;-76
2022/03/05 02:39:01;;;;;;;6.62;4.05;;;;;;;-1.41;66.42;99368.33;1704205;84;21154;-76
2022/03/05 02:41:27;;;;;;;3.33;3.12;;;;;;;-1.42;66.37;99369.59;1707344;84;21051;-76
2022/03/05 02:43:54;;;;;;;5.45;3.70;;;;;;;-1.44;66.49;99363.56;1707082;82;21082;-75
2022/03/05 02:46:28;;;;;;;3.77;3.40;;;;;;;-1.42;66.69;99367.02;1707310;84;21090;-76
2022/03/05 02:48:54;;;;;;;3.65;3.25;;;;;;;-1.39;66.78;99364.48;1707309;84;21087;-76
2022/03/05 02:51:21;;;;;;;3.90;3.33;;;;;;;-1.37;66.70;99369.22;1707521;83;21612;-76
2022/03/05 02:53:49;;;;;;;3.25;3.00;;;;;;;-1.35;66.38;99371.39;1667023;85;21095;-75
2022/03/05 02:56:17;;;;;;;3.52;3.33;;;;;;;-1.36;66.31;99374.80;1669848;85;22284;-75
2022/03/05 02:58:44;;;;;;;3.20;3.00;;;;;;;-1.37;66.13;99375.67;1665266;86;21112;-76
2022/03/05 03:01:11;;;;;;;3.62;3.33;;;;;;;-1.38;66.07;99374.81;1704053;83;21098;-75
2022/03/05 03:03:38;;;;;;;3.37;3.08;;;;;;;-1.38;66.05;99373.93;1707282;83;21214;-75
2022/03/05 03:06:08;;;;;;;3.30;3.10;;;;;;;-1.37;65.92;99373.09;1706472;83;21024;-74
2022/03/05 03:08:35;;;;;;;3.47;3.20;;;;;;;-1.38;65.88;99372.64;1707050;83;21435;-75
2022/03/05 03:11:02;;;;;;;3.12;2.92;;;;;;;-1.38;65.68;99371.34;1706275;83;21123;-76
2022/03/05 03:13:29;;;;;;;2.70;2.60;;;;;;;-1.38;65.71;99372.23;1707169;84;21133;-76
2022/03/05 03:15:55;;;;;;;3.30;3.10;;;;;;;-1.37;65.79;99379.11;1707282;84;21218;-76
2022/03/05 03:18:23;;;;;;;3.42;2.80;;;;;;;-1.35;65.57;99380.42;1706736;83;21197;-75
2022/03/05 03:20:51;;;;;;;3.37;3.17;;;;;;;-1.35;65.47;99389.45;1703348;83;21247;-75
2022/03/05 03:23:18;;;;;;;2.90;2.70;;;;;;;-1.38;65.41;99386.43;1706649;84;21630;-75
2022/03/05 03:25:45;;;;;;;3.20;2.90;;;;;;;-1.37;65.48;99389.88;1706416;84;21601;-76
2022/03/05 03:28:12;;;;;;;3.10;2.90;;;;;;;-1.39;65.62;99391.14;1705448;83;21267;-76
2022/03/05 03:30:39;;;;;;;3.47;3.17;;;;;;;-1.38;65.53;99393.28;1715868;83;21024;-75
2022/03/05 03:33:06;;;;;;;3.67;3.37;;;;;;;-1.38;65.42;99391.59;1721885;83;21112;-76
2022/03/05 03:35:33;;;;;;;3.30;3.10;;;;;;;-1.38;65.48;99399.34;1721489;83;21070;-75
2022/03/05 03:38:00;;;;;;;3.50;3.20;;;;;;;-1.36;65.74;99395.45;1726688;83;21581;-76
2022/03/05 03:40:26;;;;;;;3.35;3.10;;;;;;;-1.35;65.82;99398.05;1727412;82;21168;-76
2022/03/05 03:42:54;;;;;;;3.35;3.12;;;;;;;-1.32;65.55;99399.82;1726958;82;21403;-75
2022/03/05 03:45:20;;;;;;;3.83;3.52;;;;;;;-1.33;65.65;99404.13;1725764;82;21093;-76
2022/03/05 03:47:50;;;;;;;3.30;3.10;;;;;;;-1.32;65.70;99406.27;1727907;82;21168;-75
2022/03/05 03:50:19;;;;;;;4.05;3.10;;;;;;;-1.31;65.86;99409.31;1727218;82;21125;-76
2022/03/05 03:52:46;;;;;;;4.08;3.67;;;;;;;-1.28;65.78;99404.59;1728271;82;21874;-76
2022/03/05 03:55:16;;;;;;;3.95;3.62;;;;;;;-1.27;65.88;99405.05;1726979;83;21117;-77
2022/03/05 03:57:43;;;;;;;3.33;3.12;;;;;;;-1.25;65.90;99414.52;1727857;82;21081;-76
2022/03/05 04:00:13;;;;;;;3.12;2.92;;;;;;;-1.25;65.78;99409.36;1727290;83;21137;-76
2022/03/05 04:02:40;;;;;;;3.42;3.22;;;;;;;-1.23;65.84;99414.11;1727297;82;21089;-76
2022/03/05 04:05:09;;;;;;;3.00;2.80;;;;;;;-1.22;65.76;99411.12;1727631;83;21242;-75
2022/03/05 04:10:25;;;;;;;3.05;2.85;;;;;;;-1.25;65.75;99405.48;1720967;82;21575;-77
2022/03/05 04:12:51;;;;;;;3.20;3.00;;;;;;;-1.25;65.99;99404.63;1727683;83;21663;-75
2022/03/05 04:15:19;;;;;;;2.60;2.40;;;;;;;-1.22;65.90;99418.43;1727818;83;21061;-75
2022/03/05 04:17:45;;;;;;;2.60;2.50;;;;;;;-1.22;65.86;99421.45;1663276;86;21274;-75
2022/03/05 04:20:14;;;;;;;146.72;84.35;;;;;;;-1.21;65.85;99424.05;1727669;82;21039;-76
2022/03/05 04:22:41;;;;;;;35.98;20.00;;;;;;;-1.20;66.01;99420.59;1727448;82;21351;-77
2022/03/05 04:25:09;;;;;;;8.55;5.70;;;;;;;-1.16;65.99;99426.66;1727470;82;21097;-76
2022/03/05 04:27:36;;;;;;;4.45;2.92;;;;;;;-1.17;65.97;99425.80;1727433;83;21018;-76
2022/03/05 04:30:04;;;;;;;2.70;2.50;;;;;;;-1.16;65.86;99422.38;1725612;82;21581;-76
2022/03/05 04:32:34;;;;;;;2.47;2.37;;;;;;;-1.16;65.66;99427.55;1728226;83;22266;-76
2022/03/05 04:35:01;;;;;;;2.40;2.30;;;;;;;-1.16;65.70;99431.42;1728263;83;21136;-76
2022/03/05 04:37:28;;;;;;;2.40;2.25;;;;;;;-1.15;65.69;99433.13;1728025;83;21101;-76
2022/03/05 04:39:54;;;;;;;3.37;2.10;;;;;;;-1.14;65.73;99436.17;1728207;82;21097;-75
2022/03/05 04:42:21;;;;;;;2.37;2.27;;;;;;;-1.12;65.40;99442.64;1728010;83;21218;-76
2022/03/05 04:44:48;;;;;;;4.05;3.67;;;;;;;-1.14;65.26;99437.89;1724444;82;21128;-75
2022/03/05 04:47:15;;;;;;;20.60;12.82;;;;;;;-1.15;64.79;99441.31;1688295;84;21132;-73
2022/03/05 04:49:41;;;;;;;5.22;3.52;;;;;;;-1.18;65.05;99444.74;1721684;83;21145;-76
2022/03/05 04:52:09;;;;;;;2.40;2.30;;;;;;;-1.16;65.28;99449.49;1682464;84;21090;-76
2022/03/05 04:54:35;;;;;;;2.00;1.90;;;;;;;-1.15;65.49;99448.62;1662444;84;21308;-76
2022/03/05 04:57:03;;;;;;;2.47;2.33;;;;;;;-1.13;64.92;99455.98;1726886;82;21742;-74
2022/03/05 04:59:30;;;;;;;2.42;2.27;;;;;;;-1.15;65.00;99457.66;1691639;84;21047;-76
2022/03/05 05:01:58;;;;;;;2.30;2.20;;;;;;;-1.16;64.62;99459.81;1727462;82;21565;-76
2022/03/05 05:04:25;;;;;;;2.12;2.02;;;;;;;-1.17;64.65;99467.11;1727640;83;21145;-76
2022/03/05 05:06:52;;;;;;;2.90;2.58;;;;;;;-1.19;64.49;99468.81;1666780;84;21141;-76
2022/03/05 05:09:18;;;;;;;2.25;2.15;;;;;;;-1.20;64.59;99477.83;1728152;82;21070;-76
2022/03/05 05:11:47;;;;;;;2.10;2.00;;;;;;;-1.20;64.62;99478.69;1689804;84;21084;-78
2022/03/05 05:14:14;;;;;;;2.42;2.33;;;;;;;-1.18;64.59;99479.59;1716359;83;21074;-76
2022/03/05 05:16:42;;;;;;;2.10;2.00;;;;;;;-1.19;64.55;99481.72;1714610;82;21120;-75
2022/03/05 05:21:59;;;;;;;2.10;1.92;;;;;;;-1.19;64.61;99491.19;1724664;82;21101;-74
2022/03/05 05:24:28;;;;;;;1.95;1.87;;;;;;;-1.17;64.86;99495.51;1726496;83;21438;-76
2022/03/05 05:26:55;;;;;;;2.37;2.17;;;;;;;-1.15;64.80;99498.11;1727923;82;21093;-78
2022/03/05 05:29:23;;;;;;;2.37;2.27;;;;;;;-1.12;64.68;99506.76;1727799;83;21129;-77
2022/03/05 05:31:50;;;;;;;2.47;2.37;;;;;;;-1.12;64.48;99503.32;1728148;82;21186;-76
2022/03/05 05:34:17;;;;;;;2.67;2.47;;;;;;;-1.09;64.33;99505.05;1729137;83;21105;-76
2022/03/05 05:36:44;;;;;;;2.62;2.42;;;;;;;-1.10;64.22;99507.22;1727806;83;21093;-75
2022/03/05 05:39:11;;;;;;;2.58;2.37;;;;;;;-1.08;64.11;99505.51;1727979;83;21085;-75
2022/03/05 05:41:38;;;;;;;2.75;2.55;;;;;;;-1.08;64.22;99510.67;1728297;82;21057;-76
2022/03/05 05:44:07;;;;;;;2.27;2.00;;;;;;;-1.09;63.92;99505.05;1727732;83;21214;-76
2022/03/05 05:46:34;;;;;;;3.08;1.92;;;;;;;-1.10;63.69;99503.34;1726902;82;21526;-76
2022/03/05 05:49:02;;;;;;;2.17;2.08;;;;;;;-1.10;63.97;99513.67;1728143;82;21141;-76
2022/03/05 05:51:30;;;;;;;2.10;2.00;;;;;;;-1.08;63.97;99520.57;1727030;83;21089;-76
2022/03/05 05:53:58;;;;;;;2.20;2.10;;;;;;;-1.07;64.13;99516.30;1724499;83;21062;-75
2022/03/05 05:56:25;;;;;;;1.95;1.80;;;;;;;-1.04;64.16;99518.89;1725851;83;21614;-75
2022/03/05 05:58:53;;;;;;;2.20;2.10;;;;;;;-1.02;64.18;99519.36;1728029;83;21073;-77
2022/03/05 06:01:21;;;;;;;2.42;2.25;;;;;;;-0.99;64.84;99519.84;1727668;83;22092;-78
2022/03/05 06:03:49;;;;;;;2.27;2.10;;;;;;;-0.95;64.27;99520.30;1728001;83;21076;-79
2022/03/05 06:06:16;;;;;;;2.22;2.12;;;;;;;-0.94;64.01;99525.92;1727956;83;21042;-76
2022/03/05 06:08:43;;;;;;;2.20;1.98;;;;;;;-0.94;63.75;99526.78;1727959;83;21959;-79
2022/03/05 06:11:10;;;;;;;2.22;2.12;;;;;;;-0.95;63.59;99531.92;1728062;83;21516;-78
2022/03/05 06:13:37;;;;;;;2.60;2.40;;;;;;;-0.98;63.54;99530.16;1727859;82;21095;-77
2022/03/05 06:16:06;;;;;;;2.50;2.10;;;;;;;-0.98;63.44;99544.80;1727399;83;21581;-74
2022/03/05 06:18:34;;;;;;;2.33;2.15;;;;;;;-0.97;63.38;99540.95;1727579;83;21062;-77
2022/03/05 06:21:01;;;;;;;2.55;1.90;;;;;;;-0.94;63.05;99547.88;1728068;83;21127;-77
2022/03/05 06:23:30;;;;;;;2.40;2.20;;;;;;;-0.96;63.29;99549.55;1727365;83;21133;-75
2022/03/05 06:25:58;;;;;;;2.00;1.80;;;;;;;-0.93;63.08;99548.30;1724432;83;21011;-78
2022/03/05 06:28:27;;;;;;;1.90;1.80;;;;;;;-0.94;63.12;99555.62;1727569;83;21097;-78
2022/03/05 06:30:54;;;;;;;2.10;2.00;;;;;;;-0.89;63.33;99555.66;1720157;82;21180;-77
2022/03/05 06:33:21;;;;;;;1.72;1.62;;;;;;;-0.86;63.15;99560.44;1702028;84;21242;-78
2022/03/05 06:35:49;;;;;;;1.75;1.65;;;;;;;-0.84;62.98;99557.88;1702115;84;21642;-78
2022/03/05 06:38:16;;;;;;;2.05;1.80;;;;;;;-0.83;62.94;99556.60;1702312;84;21075;-78
2022/03/05 06:40:42;;;;;;;1.90;1.80;;;;;;;-0.83;62.75;99565.64;1702008;83;21071;-78
2022/03/05 06:47:05;;;;;;;1.87;1.77;;;;;;;-0.82;62.18;99566.09;1723723;80;21143;-78
2022/03/05 06:49:32;;;;;;;2.00;1.90;;;;;;;-0.85;62.22;99564.77;1732196;81;21060;-78
2022/03/05 06:52:03;;;;;;;1.90;1.80;;;;;;;-0.86;62.23;99572.06;1731753;82;21124;-78
2022/03/05 06:54:31;;;;;;;2.12;1.75;;;;;;;-0.87;62.28;99572.93;1731900;82;21563;-77
2022/03/05 06:56:59;;;;;;;2.52;1.90;;;;;;;-0.87;62.01;99581.97;1734115;82;21123;-77
2022/03/05 06:59:26;;;;;;;2.22;2.10;;;;;;;-0.90;61.96;99574.17;1733593;81;21242;-78
2022/03/05 07:01:53;;;;;;;3.42;1.70;;;;;;;-0.88;61.94;99577.64;1740711;82;21095;-78
2022/03/05 07:04:20;;;;;;;2.05;1.85;;;;;;;-0.85;61.85;99579.41;1739179;82;21079;-79
2022/03/05 07:06:47;;;;;;;1.98;1.87;;;;;;;-0.85;62.07;99575.09;1737112;82;21586;-78
2022/03/05 07:09:15;;;;;;;1.55;1.52;;;;;;;-0.81;61.71;99588.52;1736705;81;21118;-77
2022/03/05 07:11:42;;;;;;;2.02;1.77;;;;;;;-0.81;61.58;99585.93;1736448;81;21139;-77
2022/03/05 07:14:09;;;;;;;1.67;1.57;;;;;;;-0.80;61.53;99582.91;1736186;82;21055;-78
2022/03/05 07:16:37;;;;;;;2.30;2.08;;;;;;;-0.78;61.54;99584.65;1736336;82;21580;-77
2022/03/05 07:19:05;;;;;;;1.80;1.70;;;;;;;-0.73;61.51;99589.02;1736549;81;21151;-77
2022/03/05 07:21:33;;;;;;;2.17;2.00;;;;;;;-0.71;61.59;99589.91;1734793;82;21040;-78
2022/03/05 07:24:04;;;;;;;2.20;2.00;;;;;;;-0.67;61.75;99587.78;1732813;81;21143;-77
2022/03/05 07:26:31;;;;;;;6.60;2.52;;;;;;;-0.65;60.89;99590.84;1736265;82;21075;-78
2022/03/05 07:29:03;;;;;;;2.12;1.98;;;;;;;-0.66;60.95;99592.11;1737253;81;21566;-78
2022/03/05 07:31:30;;;;;;;2.05;1.95;;;;;;;-0.66;60.77;99594.70;1739512;82;21068;-78
2022/03/05 07:33:57;;;;;;;3.72;2.20;;;;;;;-0.64;60.99;99602.03;1742900;82;21066;-78
2022/03/05 07:36:24;;;;;;;1.90;1.80;;;;;;;-0.61;61.03;99603.38;1744022;81;21116;-77
2022/03/05 07:38:51;;;;;;;2.20;2.10;;;;;;;-0.60;60.54;99603.83;1736170;82;21049;-77
2022/03/05 07:41:18;;;;;;;1.90;1.80;;;;;;;-0.60;60.13;99602.53;1736102;82;21113;-79
2022/03/05 07:43:46;;;;;;;2.00;1.82;;;;;;;-0.61;59.95;99599.49;1736034;82;21092;-78
2022/03/05 07:46:13;;;;;;;4.55;2.30;;;;;;;-0.62;60.28;99600.36;1736714;82;21057;-79
2022/03/05 07:48:40;;;;;;;2.10;2.00;;;;;;;-0.60;60.40;99597.37;1741908;82;21273;-78
2022/03/05 07:51:07;;;;;;;1.75;1.65;;;;;;;-0.57;60.17;99603.87;1742275;82;21084;-78
2022/03/05 07:53:38;;;;;;;2.12;2.02;;;;;;;-0.57;60.27;99596.97;1740398;82;32533;-79
2022/03/05 07:56:05;;;;;;;2.12;2.00;;;;;;;-0.57;59.88;99604.73;1735610;82;21130;-77
2022/03/05 07:58:32;;;;;;;1.87;1.77;;;;;;;-0.54;60.12;99597.85;1737905;82;21055;-78
2022/03/05 08:01:01;;;;;;;2.02;1.92;;;;;;;-0.53;60.25;99604.33;1737116;82;21605;-79
2022/03/05 08:03:30;;;;;;;3.37;2.00;;;;;;;-0.49;60.36;99601.35;1734024;82;20995;-78
2022/03/05 08:05:57;;;;;;;2.10;1.80;;;;;;;-0.46;60.43;99604.83;1738022;82;21050;-78
2022/03/05 08:08:24;;;;;;;1.70;1.60;;;;;;;-0.46;60.05;99607.42;1738172;82;21254;-79
2022/03/05 08:10:54;;;;;;;2.02;1.92;;;;;;;-0.42;60.26;99605.73;1737938;82;21118;-77
2022/03/05 08:13:21;;;;;;;2.22;2.02;;;;;;;-0.41;60.50;99609.63;1737926;82;21245;-77
2022/03/05 08:15:50;;;;;;;2.20;2.00;;;;;;;-0.37;60.25;99611.82;1737892;82;20992;-78
2022/03/05 08:18:19;;;;;;;2.10;2.00;;;;;;;-0.37;60.13;99605.36;1737634;82;21071;-78
2022/03/05 08:20:47;;;;;;;1.98;1.70;;;;;;;-0.34;60.07;99605.83;1737931;82;21593;-78
2022/03/05 08:23:14;;;;;;;2.20;1.80;;;;;;;-0.33;60.10;99615.33;1737888;82;21082;-79
2022/03/05 08:25:41;;;;;;;2.20;2.10;;;;;;;-0.30;59.98;99618.81;1737982;82;22354;-78
2022/03/05 08:28:08;;;;;;;1.65;1.55;;;;;;;-0.27;59.87;99618.86;1737770;82;21062;-78
2022/03/05 08:30:35;;;;;;;1.80;1.70;;;;;;;-0.25;59.85;99614.99;1712918;83;20982;-78
2022/03/05 08:33:02;;;;;;;1.80;1.70;;;;;;;-0.21;59.72;99611.14;1716006;82;21093;-77
2022/03/05 08:35:31;;;;;;;3.00;1.98;;;;;;;-0.18;59.85;99619.37;1737294;82;21499;-77
2022/03/05 08:37:58;;;;;;;1.90;1.80;;;;;;;-0.13;59.90;99615.11;1707017;84;21519;-79
2022/03/05 08:40:30;;;;;;;1.82;1.72;;;;;;;-0.10;59.80;99613.86;1706721;84;21649;-77
2022/03/05 08:42:58;;;;;;;3.37;1.92;;;;;;;-0.07;59.45;99626.82;1706555;83;21091;-79
2022/03/05 08:45:26;;;;;;;2.17;1.98;;;;;;;-0.04;59.32;99625.53;1706922;84;21080;-77
2022/03/05 08:47:55;;;;;;;1.90;1.80;;;;;;;-0.02;59.44;99621.27;1739757;82;21685;-78
2022/03/05 08:50:22;;;;;;;2.77;1.70;;;;;;;0.04;59.39;99623.47;1747517;82;21120;-78
2022/03/05 08:52:56;;;;;;;2.05;1.80;;;;;;;0.07;59.40;99626.06;1731605;81;26961;-79
2022/03/05 08:55:25;;;;;;;1.95;1.85;;;;;;;0.10;59.02;99626.09;1723109;82;21700;-79
2022/03/05 08:57:53;;;;;;;2.83;2.00;;;;;;;0.13;59.19;99627.42;1726586;82;21511;-78
2022/03/05 09:00:22;;;;;;;1.87;1.77;;;;;;;0.17;59.16;99634.38;1741979;81;21633;-78
2022/03/05 09:02:50;;;;;;;3.17;1.87;;;;;;;0.26;59.00;99634.88;1716080;82;21122;-77
2022/03/05 09:05:19;;;;;;;1.90;1.80;;;;;;;0.30;58.81;99634.94;1716411;82;21555;-78
2022/03/05 09:07:50;;;;;;;2.33;2.08;;;;;;;0.36;58.65;99641.88;1735897;82;22104;-78
2022/03/05 09:10:18;;;;;;;2.25;1.80;;;;;;;0.44;58.07;99647.09;1736722;82;21063;-78
2022/03/05 09:12:46;;;;;;;2.35;2.10;;;;;;;0.47;57.80;99647.12;1735797;81;21082;-77
2022/03/05 09:15:16;;;;;;;1.67;1.62;;;;;;;0.49;57.66;99653.20;1736362;82;21871;-79
2022/03/05 09:17:47;;;;;;;1.90;1.80;;;;;;;0.49;57.06;99653.20;1736791;82;20984;-78
2022/03/05 09:20:14;;;;;;;1.70;1.60;;;;;;;0.48;57.59;99652.76;1736895;82;21020;-78
2022/03/05 09:22:42;;;;;;;2.22;2.02;;;;;;;0.50;57.56;99654.92;1734521;81;21107;-79
2022/03/05 09:25:12;;;;;;;5.37;1.87;;;;;;;0.51;57.29;99659.27;1736903;82;21503;-77
2022/03/05 09:27:41;;;;;;;1.75;1.65;;;;;;;0.47;57.33;99658.37;1735640;81;21079;-78
2022/03/05 09:30:14;;;;;;;2.33;2.12;;;;;;;0.47;57.65;99666.54;1746072;82;21054;-77
2022/03/05 09:32:42;;;;;;;1.65;1.55;;;;;;;0.50;57.53;99663.98;1747611;82;21380;-77
2022/03/05 09:35:12;;;;;;;2.02;1.92;;;;;;;0.49;57.29;99667.01;1746048;81;21106;-77
2022/03/05 09:37:40;;;;;;;1.82;1.72;;;;;;;0.45;56.89;99667.82;1676522;85;21696;-78
2022/03/05 09:40:10;;;;;;;1.92;1.82;;;;;;;0.46;57.35;99667.41;1677271;85;21897;-79
2022/03/05 09:42:42;;;;;;;3.72;1.80;;;;;;;0.48;57.46;99669.58;1700247;84;21177;-78
2022/03/05 09:45:12;;;;;;;1.80;1.70;;;;;;;0.47;57.05;99671.72;1698090;84;21147;-77
2022/03/05 09:47:45;;;;;;;1.82;1.72;;;;;;;0.47;57.23;99670.02;1699831;84;21600;-79
2022/03/05 09:50:15;;;;;;;2.40;2.12;;;;;;;0.50;57.41;99671.75;1700570;84;21133;-78
2022/03/05 09:52:47;;;;;;;2.10;2.00;;;;;;;0.49;57.10;99672.63;1700040;84;21032;-78
2022/03/05 09:55:14;;;;;;;2.30;2.10;;;;;;;0.46;57.11;99669.56;1704900;83;21030;-78
2022/03/05 09:57:42;;;;;;;2.35;1.80;;;;;;;0.46;57.10;99672.16;1687868;83;21639;-78
2022/03/05 10:00:12;;;;;;;1.82;1.72;;;;;;;0.46;56.73;99672.16;1688561;83;21481;-78
2022/03/05 10:02:41;;;;;;;2.30;2.10;;;;;;;0.41;56.97;99675.56;1709714;83;22102;-77
2022/03/05 10:05:18;;;;;;;1.72;1.62;;;;;;;0.38;57.17;99675.53;1704014;83;21724;-77
2022/03/05 10:08:12;;;;;;;2.98;1.90;;;;;;;0.34;57.46;99668.17;1706819;84;21081;-76
2022/03/05 10:10:53;;;;;;;2.62;2.42;;;;;;;0.34;57.93;99676.80;1704396;83;21542;-78
2022/03/05 10:13:30;;;;;;;2.37;1.70;;;;;;;0.36;57.71;99685.44;1706493;84;21472;-77
2022/03/05 10:16:01;;;;;;;1.80;1.70;;;;;;;0.38;57.97;99679.42;1705757;83;21023;-77
2022/03/05 10:18:36;;;;;;;1.80;1.70;;;;;;;0.39;58.08;99678.55;1707074;83;21568;-77
2022/03/05 10:21:10;;;;;;;2.17;1.80;;;;;;;0.38;58.08;99685.45;1706697;83;21065;-78
2022/03/05 10:23:39;;;;;;;1.95;1.85;;;;;;;0.38;57.83;99682.01;1707240;83;21063;-78
2022/03/05 10:26:09;;;;;;;2.25;2.15;;;;;;;0.39;57.87;99685.02;1706886;84;20923;-79
2022/03/05 10:28:41;;;;;;;2.25;2.05;;;;;;;0.40;58.01;99684.17;1700783;84;21009;-78
2022/03/05 10:31:11;;;;;;;3.72;1.95;;;;;;;0.43;58.07;99681.62;1677275;85;22335;-78
2022/03/05 10:33:46;;;;;;;2.58;2.25;;;;;;;0.46;58.21;99685.53;1665948;84;21630;-74
2022/03/05 10:36:25;;;;;;;3.33;1.87;;;;;;;0.50;57.99;99682.11;1710240;82;21102;-76
2022/03/05 10:38:59;;;;;;;1.90;1.80;;;;;;;0.51;58.06;99672.20;1714716;82;22284;-74
